createdAt,value
2022-08-25T00:02:11.082Z,5.73
2022-08-25T00:04:57.144Z,5.23
2022-08-25T00:07:42.826Z,5.17
2022-08-25T00:10:28.992Z,5.70
2022-08-25T00:13:14.712Z,6.10
2022-08-25T00:16:00.988Z,5.80
2022-08-25T00:18:49.467Z,6.33
2022-08-25T00:21:35.464Z,5.20
2022-08-25T00:24:21.898Z,6.13
2022-08-25T00:27:07.835Z,5.83
2022-08-25T00:29:53.646Z,5.73
2022-08-25T00:32:40.054Z,5.87
2022-08-25T00:35:26.591Z,7.00
2022-08-25T00:38:12.927Z,6.20
2022-08-25T00:41:07.432Z,6.30
2022-08-25T00:43:57.813Z,6.00
2022-08-25T00:46:45.608Z,5.87
2022-08-25T00:49:36.669Z,6.63
2022-08-25T00:52:23.387Z,6.50
2022-08-25T00:55:14.505Z,6.43
2022-08-25T00:58:07.508Z,6.43
2022-08-25T01:00:55.397Z,6.47
2022-08-25T01:03:41.149Z,6.07
2022-08-25T01:06:28.829Z,6.53
2022-08-25T01:09:14.959Z,6.70
2022-08-25T01:12:01.723Z,6.13
2022-08-25T01:14:47.879Z,6.50
2022-08-25T01:17:35.696Z,6.63
2022-08-25T01:20:23.409Z,6.40
2022-08-25T01:23:14.739Z,5.90
2022-08-25T01:26:12.265Z,6.27
2022-08-25T01:29:17.314Z,6.30
2022-08-25T01:32:05.991Z,7.20
2022-08-25T01:34:51.997Z,6.77
2022-08-25T01:37:38.040Z,6.63
2022-08-25T01:40:24.004Z,6.20
2022-08-25T01:43:09.827Z,6.33
2022-08-25T01:45:55.951Z,6.80
2022-08-25T01:48:41.793Z,6.27
2022-08-25T01:51:30.887Z,6.20
2022-08-25T01:54:17.982Z,6.33
2022-08-25T01:57:04.606Z,6.20
2022-08-25T01:59:50.529Z,6.67
2022-08-25T02:02:36.109Z,6.27
2022-08-25T02:05:23.731Z,7.10
2022-08-25T02:08:09.944Z,6.03
2022-08-25T02:10:55.760Z,6.10
2022-08-25T02:13:42.735Z,6.57
2022-08-25T02:16:30.979Z,6.60
2022-08-25T02:19:17.005Z,6.27
2022-08-25T02:22:02.681Z,6.00
2022-08-25T02:24:49.805Z,6.97
2022-08-25T02:27:35.538Z,7.00
2022-08-25T02:30:21.641Z,6.50
2022-08-25T02:33:08.280Z,5.97
2022-08-25T02:35:57.333Z,5.87
2022-08-25T02:38:43.475Z,5.73
2022-08-25T02:41:31.341Z,6.30
2022-08-25T02:44:17.245Z,6.67
2022-08-25T02:47:03.058Z,6.03
2022-08-25T02:49:50.232Z,5.97
2022-08-25T02:52:36.164Z,7.00
2022-08-25T02:55:23.794Z,7.33
2022-08-25T02:58:10.725Z,7.50
2022-08-25T03:00:58.882Z,6.40
2022-08-25T03:03:46.346Z,6.43
2022-08-25T03:06:32.573Z,6.57
2022-08-25T03:09:18.192Z,7.47
2022-08-25T03:12:04.196Z,6.50
2022-08-25T03:14:50.118Z,7.60
2022-08-25T03:17:36.657Z,6.10
2022-08-25T03:20:23.594Z,7.43
2022-08-25T03:23:10.922Z,6.80
2022-08-25T03:26:15.505Z,7.07
2022-08-25T03:29:05.124Z,6.97
2022-08-25T03:31:52.782Z,6.10
2022-08-25T03:34:39.086Z,6.67
2022-08-25T03:37:24.668Z,6.30
2022-08-25T03:40:16.276Z,7.20
2022-08-25T03:43:02.594Z,7.07
2022-08-25T03:45:51.260Z,6.07
2022-08-25T03:48:37.042Z,6.50
2022-08-25T03:51:24.172Z,7.37
2022-08-25T03:54:11.008Z,7.20
2022-08-25T03:56:56.737Z,6.33
2022-08-25T03:59:42.557Z,5.90
2022-08-25T04:02:28.401Z,9.00
2022-08-25T04:05:14.116Z,6.93
2022-08-25T04:08:01.967Z,6.67
2022-08-25T04:10:48.038Z,6.90
2022-08-25T04:13:34.101Z,6.50
2022-08-25T04:16:24.336Z,6.03
2022-08-25T04:19:10.240Z,7.20
2022-08-25T04:21:56.821Z,6.73
2022-08-25T04:24:43.256Z,7.40
2022-08-25T04:27:28.894Z,7.20
2022-08-25T04:30:14.976Z,7.83
2022-08-25T04:33:00.879Z,7.20
2022-08-25T04:35:50.226Z,8.43
2022-08-25T04:38:36.714Z,9.43
2022-08-25T04:41:24.295Z,7.07
2022-08-25T04:44:10.948Z,7.47
2022-08-25T04:46:56.648Z,7.60
2022-08-25T04:49:42.276Z,6.87
2022-08-25T04:52:28.414Z,7.23
2022-08-25T04:55:14.390Z,7.90
2022-08-25T04:58:00.172Z,8.70
2022-08-25T05:00:46.937Z,8.77
2022-08-25T05:03:32.868Z,8.20
2022-08-25T05:06:19.438Z,8.03
2022-08-25T05:09:05.620Z,8.40
2022-08-25T05:11:51.130Z,8.00
2022-08-25T05:14:37.107Z,9.90
2022-08-25T05:17:22.997Z,8.80
2022-08-25T05:20:09.234Z,9.30
2022-08-25T05:22:55.061Z,8.60
2022-08-25T05:25:42.105Z,9.30
2022-08-25T05:28:27.687Z,10.10
2022-08-25T05:31:14.311Z,9.57
2022-08-25T05:34:00.264Z,8.93
2022-08-25T05:36:46.154Z,7.80
2022-08-25T05:39:33.682Z,8.80
2022-08-25T05:42:19.719Z,9.07
2022-08-25T05:45:06.398Z,8.60
2022-08-25T05:47:52.147Z,10.43
2022-08-25T05:50:38.022Z,8.80
2022-08-25T05:53:25.163Z,9.00
2022-08-25T05:56:13.926Z,9.40
2022-08-25T05:58:59.614Z,9.70
2022-08-25T06:02:06.073Z,10.07
2022-08-25T06:04:52.739Z,10.03
2022-08-25T06:07:38.428Z,11.87
2022-08-25T06:10:24.351Z,11.37
2022-08-25T06:13:10.244Z,12.10
2022-08-25T06:16:00.342Z,10.90
2022-08-25T06:18:46.092Z,9.83
2022-08-25T06:21:32.023Z,10.80
2022-08-25T06:24:18.992Z,10.37
2022-08-25T06:27:05.031Z,11.77
2022-08-25T06:29:51.160Z,12.40
2022-08-25T06:32:43.395Z,10.67
2022-08-25T06:35:29.696Z,11.40
2022-08-25T06:38:16.453Z,12.23
2022-08-25T06:41:03.639Z,11.00
2022-08-25T06:43:54.135Z,11.83
2022-08-25T06:46:41.732Z,12.80
2022-08-25T06:49:31.855Z,13.27
2022-08-25T06:52:19.272Z,11.10
2022-08-25T06:55:06.607Z,12.27
2022-08-25T06:57:56.290Z,12.40
2022-08-25T07:00:43.833Z,12.20
2022-08-25T07:03:29.755Z,12.87
2022-08-25T07:06:18.603Z,13.30
2022-08-25T07:09:05.705Z,14.83
2022-08-25T07:11:52.631Z,12.20
2022-08-25T07:14:39.138Z,11.23
2022-08-25T07:17:25.076Z,12.27
2022-08-25T07:20:13.780Z,11.53
2022-08-25T07:22:59.796Z,11.27
2022-08-25T07:25:45.447Z,11.47
2022-08-25T07:28:31.396Z,11.67
2022-08-25T07:31:17.461Z,11.63
2022-08-25T07:34:22.203Z,10.97
2022-08-25T07:37:08.065Z,12.37
2022-08-25T07:39:55.061Z,12.00
2022-08-25T07:42:43.099Z,11.53
2022-08-25T07:45:30.765Z,10.87
2022-08-25T07:48:19.663Z,10.90
2022-08-25T07:51:09.740Z,11.50
2022-08-25T07:53:55.736Z,11.17
2022-08-25T07:56:43.674Z,12.00
2022-08-25T07:59:29.553Z,11.27
2022-08-25T08:02:17.714Z,10.90
2022-08-25T08:05:04.678Z,11.27
2022-08-25T08:07:56.159Z,11.90
2022-08-25T08:11:02.738Z,10.80
2022-08-25T08:13:50.877Z,12.10
2022-08-25T08:16:38.426Z,11.73
2022-08-25T08:19:24.728Z,12.50
2022-08-25T08:22:15.499Z,11.50
2022-08-25T08:25:02.248Z,11.67
2022-08-25T08:27:50.084Z,10.50
2022-08-25T08:30:36.598Z,13.30
2022-08-25T08:33:22.918Z,11.33
2022-08-25T08:36:11.668Z,10.97
2022-08-25T08:38:58.173Z,11.67
2022-08-25T08:42:11.695Z,10.60
2022-08-25T08:45:17.260Z,11.57
2022-08-25T08:48:10.081Z,10.90
2022-08-25T08:51:14.264Z,11.00
2022-08-25T08:54:03.355Z,11.30
2022-08-25T08:56:51.193Z,10.80
2022-08-25T08:59:46.513Z,10.23
2022-08-25T09:02:39.599Z,9.70
2022-08-25T09:05:50.338Z,10.03
2022-08-25T09:08:37.289Z,10.27
2022-08-25T09:11:30.552Z,10.10
2022-08-25T09:14:30.286Z,10.17
2022-08-25T09:17:35.460Z,9.70
2022-08-25T09:20:34.793Z,8.83
2022-08-25T09:23:21.027Z,9.53
2022-08-25T09:26:19.601Z,10.00
2022-08-25T09:29:16.204Z,10.17
2022-08-25T09:32:04.359Z,9.90
2022-08-25T09:34:51.336Z,9.80
2022-08-25T09:37:38.130Z,10.10
2022-08-25T09:40:25.318Z,9.43
2022-08-25T09:43:20.710Z,10.43
2022-08-25T09:46:10.554Z,10.57
2022-08-25T09:48:57.801Z,10.00
2022-08-25T09:51:44.524Z,9.60
2022-08-25T09:54:36.274Z,9.73
2022-08-25T09:57:45.909Z,10.57
2022-08-25T10:00:36.719Z,10.73
2022-08-25T10:03:24.760Z,10.93
2022-08-25T10:06:16.302Z,10.63
2022-08-25T10:09:05.838Z,10.57
2022-08-25T10:11:52.575Z,11.03
2022-08-25T10:14:44.739Z,10.60
2022-08-25T10:17:33.585Z,10.53
2022-08-25T10:20:32.982Z,10.83
2022-08-25T10:23:19.484Z,10.70
2022-08-25T10:26:11.543Z,9.37
2022-08-25T10:29:07.213Z,10.43
2022-08-25T10:32:16.423Z,10.50
2022-08-25T10:35:08.805Z,10.80
2022-08-25T10:38:21.696Z,9.97
2022-08-25T10:41:14.955Z,11.17
2022-08-25T10:44:30.068Z,10.03
2022-08-25T10:47:34.661Z,10.07
2022-08-25T10:50:31.320Z,9.63
2022-08-25T10:53:36.038Z,9.53
2022-08-25T10:56:25.129Z,8.30
2022-08-25T10:59:24.640Z,9.37
2022-08-25T11:02:30.317Z,9.87
2022-08-25T11:05:36.809Z,9.30
2022-08-25T11:08:28.919Z,8.83
2022-08-25T11:11:21.685Z,10.20
2022-08-25T11:14:17.092Z,12.17
2022-08-25T11:17:17.675Z,8.73
2022-08-25T11:20:26.480Z,9.30
2022-08-25T11:23:25.596Z,12.23
2022-08-25T11:26:12.678Z,9.90
2022-08-25T11:29:12.015Z,8.67
2022-08-25T11:31:59.463Z,8.50
2022-08-25T11:34:46.758Z,7.60
2022-08-25T11:37:33.494Z,7.60
2022-08-25T11:40:28.928Z,8.13
2022-08-25T11:43:38.094Z,7.97
2022-08-25T11:46:45.497Z,7.47
2022-08-25T11:49:42.207Z,7.33
2022-08-25T11:52:34.800Z,7.80
2022-08-25T11:55:26.970Z,6.23
2022-08-25T11:58:31.076Z,7.30
2022-08-25T12:01:35.717Z,6.30
2022-08-25T12:04:44.782Z,6.50
2022-08-25T12:08:10.171Z,6.77
2022-08-25T12:11:10.475Z,7.33
2022-08-25T12:14:08.285Z,7.33
2022-08-25T12:17:05.164Z,6.80
2022-08-25T12:19:53.917Z,7.30
2022-08-25T12:22:41.675Z,6.93
2022-08-25T12:25:33.974Z,7.60
2022-08-25T12:28:41.806Z,7.57
2022-08-25T12:31:34.652Z,7.67
2022-08-25T12:34:47.498Z,8.20
2022-08-25T12:37:33.438Z,8.13
2022-08-25T12:40:25.680Z,7.73
2022-08-25T12:43:20.925Z,7.70
2022-08-25T12:46:23.710Z,7.60
2022-08-25T12:49:15.788Z,8.00
2022-08-25T12:52:05.759Z,7.00
2022-08-25T12:55:05.088Z,7.70
2022-08-25T12:57:57.651Z,8.50
2022-08-25T13:01:09.178Z,7.20
2022-08-25T13:04:12.965Z,7.70
2022-08-25T13:06:59.669Z,7.60
2022-08-25T13:09:58.868Z,6.33
2022-08-25T13:12:48.121Z,6.90
2022-08-25T13:15:40.007Z,6.23
2022-08-25T13:18:29.555Z,6.23
2022-08-25T13:21:20.592Z,7.13
2022-08-25T13:24:26.332Z,6.57
2022-08-25T13:27:22.649Z,6.60
2022-08-25T13:30:20.127Z,7.00
2022-08-25T13:33:25.128Z,6.23
2022-08-25T13:36:35.923Z,7.20
2022-08-25T13:39:45.985Z,6.90
2022-08-25T13:42:32.144Z,5.87
2022-08-25T13:45:20.367Z,6.07
2022-08-25T13:48:22.580Z,6.30
2022-08-25T13:51:23.335Z,6.83
2022-08-25T13:54:12.141Z,6.43
2022-08-25T13:57:16.880Z,6.10
2022-08-25T14:00:10.003Z,5.50
2022-08-25T14:02:55.749Z,7.67
2022-08-25T14:05:42.744Z,6.97
2022-08-25T14:08:33.035Z,6.00
2022-08-25T14:11:32.708Z,6.70
2022-08-25T14:14:27.867Z,6.20
2022-08-25T14:17:36.351Z,6.23
2022-08-25T14:20:28.923Z,6.30
2022-08-25T14:23:18.838Z,6.67
2022-08-25T14:26:06.386Z,6.93
2022-08-25T14:28:53.918Z,7.37
2022-08-25T14:31:43.914Z,7.00
2022-08-25T14:34:36.721Z,7.27
2022-08-25T14:37:25.593Z,6.40
2022-08-25T14:40:19.630Z,5.60
2022-08-25T14:43:06.641Z,6.53
2022-08-25T14:45:55.762Z,7.10
2022-08-25T14:48:43.207Z,7.30
2022-08-25T14:51:29.774Z,6.50
2022-08-25T14:54:18.480Z,6.33
2022-08-25T14:57:08.441Z,6.50
2022-08-25T14:59:55.626Z,6.97
2022-08-25T15:02:43.138Z,6.63
2022-08-25T15:05:32.646Z,6.40
2022-08-25T15:08:37.144Z,6.43
2022-08-25T15:11:23.806Z,7.30
2022-08-25T15:14:11.067Z,7.60
2022-08-25T15:16:58.604Z,6.80
2022-08-25T15:19:44.835Z,7.10
2022-08-25T15:22:31.558Z,6.97
2022-08-25T15:25:18.553Z,6.97
2022-08-25T15:28:09.887Z,7.60
2022-08-25T15:30:56.128Z,6.70
2022-08-25T15:33:42.303Z,6.50
2022-08-25T15:36:27.893Z,6.67
2022-08-25T15:39:13.888Z,6.77
2022-08-25T15:42:01.881Z,6.80
2022-08-25T15:44:53.214Z,6.60
2022-08-25T15:47:40.648Z,6.33
2022-08-25T15:50:27.456Z,6.80
2022-08-25T15:53:15.140Z,6.20
2022-08-25T15:56:09.206Z,6.20
2022-08-25T15:58:57.592Z,5.90
2022-08-25T16:01:44.796Z,6.30
2022-08-25T16:04:32.453Z,6.47
2022-08-25T16:07:20.358Z,6.07
2022-08-25T16:10:08.870Z,5.83
2022-08-25T16:12:55.429Z,6.27
2022-08-25T16:15:47.109Z,6.10
2022-08-25T16:18:40.220Z,6.50
2022-08-25T16:21:32.341Z,5.70
2022-08-25T16:24:19.399Z,6.17
2022-08-25T16:27:11.334Z,6.87
2022-08-25T16:29:57.504Z,6.30
2022-08-25T16:32:43.675Z,5.20
2022-08-25T16:35:29.521Z,5.53
2022-08-25T16:38:17.691Z,5.00
2022-08-25T16:41:08.952Z,5.43
2022-08-25T16:43:55.678Z,6.47
2022-08-25T16:46:42.871Z,14.00
2022-08-25T16:49:30.961Z,12.10
2022-08-25T16:52:35.474Z,7.80
2022-08-25T16:55:39.873Z,5.90
2022-08-25T16:58:26.703Z,5.43
2022-08-25T17:01:15.978Z,5.57
2022-08-25T17:04:04.790Z,4.80
2022-08-25T17:06:52.140Z,4.93
2022-08-25T17:09:39.502Z,5.57
2022-08-25T17:12:26.187Z,8.77
2022-08-25T17:15:23.698Z,6.60
2022-08-25T17:18:13.161Z,9.33
2022-08-25T17:21:00.274Z,16.60
2022-08-25T17:23:48.224Z,11.17
2022-08-25T17:26:55.109Z,5.37
2022-08-25T17:29:44.401Z,7.50
2022-08-25T17:32:30.611Z,7.60
2022-08-25T17:35:17.632Z,7.10
2022-08-25T17:38:03.881Z,7.77
2022-08-25T17:40:57.202Z,5.53
2022-08-25T17:43:43.701Z,6.30
2022-08-25T17:46:29.461Z,7.03
2022-08-25T17:49:15.698Z,6.13
2022-08-25T17:52:02.299Z,6.73
2022-08-25T17:54:48.345Z,7.10
2022-08-25T17:57:34.273Z,5.93
2022-08-25T18:00:21.056Z,6.57
2022-08-25T18:03:14.995Z,9.70
2022-08-25T18:06:06.606Z,6.97
2022-08-25T18:08:56.324Z,8.47
2022-08-25T18:11:45.823Z,10.77
2022-08-25T18:14:32.827Z,10.80
2022-08-25T18:17:21.915Z,8.07
2022-08-25T18:20:11.260Z,11.70
2022-08-25T18:22:58.629Z,9.80
2022-08-25T18:25:44.881Z,8.70
2022-08-25T18:28:32.026Z,8.70
2022-08-25T18:31:19.906Z,8.83
2022-08-25T18:34:10.527Z,7.57
2022-08-25T18:36:56.603Z,7.70
2022-08-25T18:40:01.446Z,8.40
2022-08-25T18:42:48.683Z,12.00
2022-08-25T18:45:39.461Z,7.83
2022-08-25T18:48:26.521Z,7.03
2022-08-25T18:51:26.200Z,8.00
2022-08-25T18:54:23.471Z,7.83
2022-08-25T18:57:09.886Z,7.93
2022-08-25T18:59:55.771Z,8.20
2022-08-25T19:02:42.058Z,8.77
2022-08-25T19:05:35.083Z,7.60
2022-08-25T19:08:21.824Z,7.30
2022-08-25T19:11:08.570Z,7.33
2022-08-25T19:13:54.962Z,9.57
2022-08-25T19:16:42.319Z,7.97
2022-08-25T19:19:29.608Z,8.20
2022-08-25T19:22:38.543Z,7.47
2022-08-25T19:25:23.947Z,8.30
2022-08-25T19:28:14.266Z,7.97
2022-08-25T19:31:00.808Z,9.17
2022-08-25T19:33:47.919Z,8.67
2022-08-25T19:36:38.511Z,10.03
2022-08-25T19:39:25.901Z,9.20
2022-08-25T19:42:37.134Z,10.10
2022-08-25T19:45:20.874Z,10.60
2022-08-25T19:48:08.463Z,11.57
2022-08-25T19:50:56.145Z,11.03
2022-08-25T19:53:42.996Z,8.30
2022-08-25T19:56:30.954Z,9.20
2022-08-25T19:59:18.693Z,8.30
2022-08-25T20:02:05.845Z,7.73
2022-08-25T20:04:57.183Z,8.10
2022-08-25T20:07:49.829Z,8.80
2022-08-25T20:10:41.855Z,9.50
2022-08-25T20:13:28.901Z,8.13
2022-08-25T20:16:14.885Z,8.73
2022-08-25T20:19:05.376Z,8.37
2022-08-25T20:21:55.042Z,9.20
2022-08-25T20:27:56.923Z,9.87
2022-08-25T20:30:44.794Z,9.57
2022-08-25T20:33:31.792Z,9.57
2022-08-25T20:36:21.402Z,10.40
2022-08-25T20:39:08.594Z,10.33
2022-08-25T20:41:56.956Z,9.63
2022-08-25T20:44:42.701Z,8.90
2022-08-25T20:47:28.954Z,8.53
2022-08-25T20:50:15.119Z,9.20
2022-08-25T20:53:01.583Z,10.70
2022-08-25T20:55:47.723Z,8.47
2022-08-25T20:58:33.470Z,7.73
2022-08-25T21:01:40.157Z,10.33
2022-08-25T21:04:29.113Z,9.30
2022-08-25T21:07:16.185Z,9.00
2022-08-25T21:10:02.076Z,9.43
2022-08-25T21:12:49.408Z,9.27
2022-08-25T21:15:40.753Z,11.70
2022-08-25T21:18:31.798Z,9.87
2022-08-25T21:21:17.824Z,11.20
2022-08-25T21:24:06.182Z,9.93
2022-08-25T21:26:55.885Z,10.50
2022-08-25T21:29:44.637Z,10.10
2022-08-25T21:32:40.556Z,8.00
2022-08-25T21:35:40.545Z,8.63
2022-08-25T21:38:29.264Z,9.13
2022-08-25T21:41:16.328Z,9.37
2022-08-25T21:44:03.304Z,8.80
2022-08-25T21:46:54.282Z,9.17
2022-08-25T21:49:40.450Z,8.80
2022-08-25T21:52:26.188Z,10.30
2022-08-25T21:55:16.111Z,9.40
2022-08-25T21:58:02.105Z,8.90
2022-08-25T22:00:47.900Z,8.83
2022-08-25T22:03:34.697Z,8.80
2022-08-25T22:06:23.157Z,9.40
2022-08-25T22:09:10.593Z,10.90
2022-08-25T22:11:57.653Z,8.40
2022-08-25T22:14:45.306Z,9.10
2022-08-25T22:17:31.549Z,9.23
2022-08-25T22:20:19.471Z,9.43
2022-08-25T22:23:06.305Z,8.87
2022-08-25T22:25:52.166Z,9.37
2022-08-25T22:28:37.894Z,8.80
2022-08-25T22:31:24.368Z,8.70
2022-08-25T22:34:10.399Z,8.40
2022-08-25T22:36:59.570Z,8.83
2022-08-25T22:39:46.305Z,9.10
2022-08-25T22:42:32.474Z,8.73
2022-08-25T22:45:18.793Z,9.03
2022-08-25T22:48:05.224Z,8.60
2022-08-25T22:50:51.683Z,8.63
2022-08-25T22:53:38.954Z,9.10
2022-08-25T22:56:32.494Z,8.67
2022-08-25T22:59:18.668Z,8.00
2022-08-25T23:02:04.613Z,8.67
2022-08-25T23:04:50.923Z,8.23
2022-08-25T23:07:42.409Z,8.00
2022-08-25T23:10:29.963Z,7.93
2022-08-25T23:13:20.190Z,8.00
2022-08-25T23:16:20.377Z,8.43
2022-08-25T23:19:07.785Z,8.47
2022-08-25T23:22:11.068Z,8.70
2022-08-25T23:24:57.180Z,8.60
2022-08-25T23:27:43.204Z,7.70
2022-08-25T23:30:29.468Z,7.63
2022-08-25T23:33:18.856Z,7.83
2022-08-25T23:36:07.367Z,7.70
2022-08-25T23:38:54.637Z,7.60
2022-08-25T23:41:41.935Z,7.90
2022-08-25T23:44:28.952Z,7.50
2022-08-25T23:47:14.766Z,8.10
2022-08-25T23:50:02.332Z,8.13
2022-08-25T23:52:48.598Z,8.10
2022-08-25T23:55:34.544Z,7.77
2022-08-25T23:58:20.755Z,7.37
